Appleby, South Dakota
Current Conditions -  °F | °C
As of 2:53 PM on Thursday 18 Dec 2014 (Local Time) from KATY Reporting Station
Overcast Overcast  
Wind Chill: -9°   Ceiling: 1100
Heat Index: -4°   Visibility: 10mi
Dew Point: -7°   Wind: 8mph
Humidity: 84%   Direction: 200°SSW
Pressure: 30.12"   Gusts: NA
Location:  44.9156°N, 97.1699°W
Report Text: KATY 182053Z AUTO 20007KT 10SM OVC011 M04/M07 A3012 RMK AO2 SLP233 T10441067 56007
Loading
Personal Weather Stations






























Interactive Weather Map New forecast layout! Learn more

10-Day Weather Forecast

Advertisements
Track Severe Weather on mobile